Time;durP1;ratioP1;P1;durP2;ratioP2;P2;SDS_P1;SDS_P2;PMS_P1;PMS_P2;Temp;Humidity;BMP_temperature;BMP_pressure;BME280_temperature;BME280_humidity;BME280_pressure;Samples;Min_cycle;Max_cycle;Signal;HPM_P1;HPM_P2
2023/05/10 00:02:14;;;;;;;4.72;3.78;;;;;;;;;;5016955;28;20022;-26
2023/05/10 00:04:40;;;;;;;9.32;3.85;;;;;;;;;;5017514;28;20449;-26
2023/05/10 00:07:07;;;;;;;7.45;4.80;;;;;;;;;;5017811;28;20041;-26
2023/05/10 00:09:33;;;;;;;8.20;4.78;;;;;;;;;;5016289;28;20369;-26
2023/05/10 00:11:59;;;;;;;9.05;3.65;;;;;;;;;;5016947;28;20022;-26
2023/05/10 00:14:25;;;;;;;9.60;3.42;;;;;;;;;;5016869;28;20033;-26
2023/05/10 00:16:51;;;;;;;8.30;3.28;;;;;;;;;;5017456;28;20341;-26
2023/05/10 00:19:17;;;;;;;6.68;4.30;;;;;;;;;;5016860;28;20036;-26
2023/05/10 00:21:43;;;;;;;8.73;4.22;;;;;;;;;;5017141;28;20101;-26
2023/05/10 00:24:09;;;;;;;7.32;4.22;;;;;;;;;;5017067;28;20456;-26
2023/05/10 00:26:36;;;;;;;10.35;4.10;;;;;;;;;;5016997;28;20022;-26
2023/05/10 00:29:02;;;;;;;15.20;4.32;;;;;;;;;;5016678;28;20449;-26
2023/05/10 00:31:28;;;;;;;5.95;3.90;;;;;;;;;;5016901;28;20331;-26
2023/05/10 00:33:54;;;;;;;5.80;4.00;;;;;;;;;;5016450;28;20069;-26
2023/05/10 00:36:20;;;;;;;5.40;4.07;;;;;;;;;;5016587;28;20465;-26
2023/05/10 00:38:47;;;;;;;7.40;3.72;;;;;;;;;;5016760;28;20361;-26
2023/05/10 00:41:13;;;;;;;9.15;4.57;;;;;;;;;;5016451;28;20334;-26
2023/05/10 00:43:39;;;;;;;5.78;4.00;;;;;;;;;;5016627;28;20029;-26
2023/05/10 00:46:05;;;;;;;8.18;3.67;;;;;;;;;;5016606;28;20084;-26
2023/05/10 00:48:32;;;;;;;4.43;3.60;;;;;;;;;;5016599;28;20362;-26
2023/05/10 00:50:58;;;;;;;6.88;4.30;;;;;;;;;;5016295;28;20099;-26
2023/05/10 00:53:25;;;;;;;5.50;3.60;;;;;;;;;;5016104;28;20026;-26
2023/05/10 00:55:51;;;;;;;5.38;4.68;;;;;;;;;;5016220;28;20018;-25
2023/05/10 00:58:17;;;;;;;6.43;4.63;;;;;;;;;;5016176;28;20499;-26
2023/05/10 01:00:44;;;;;;;7.13;3.40;;;;;;;;;;5016412;28;20022;-26
2023/05/10 01:03:14;;;;;;;5.53;3.72;;;;;;;;;;5015768;28;20050;-26
2023/05/10 01:05:40;;;;;;;15.93;4.20;;;;;;;;;;5016277;28;20033;-26
2023/05/10 01:08:06;;;;;;;7.60;3.80;;;;;;;;;;5016223;28;20030;-26
2023/05/10 01:10:32;;;;;;;8.50;4.55;;;;;;;;;;5016454;28;20030;-25
2023/05/10 01:13:00;;;;;;;9.80;4.13;;;;;;;;;;5016274;28;20037;-26
2023/05/10 01:15:26;;;;;;;8.75;4.20;;;;;;;;;;5015836;28;20045;-26
2023/05/10 01:17:53;;;;;;;4.25;3.85;;;;;;;;;;5015819;28;20408;-26
2023/05/10 01:20:19;;;;;;;8.80;3.55;;;;;;;;;;5015571;28;20021;-26
2023/05/10 01:22:45;;;;;;;6.32;3.55;;;;;;;;;;5015686;28;20087;-26
2023/05/10 01:25:25;;;;;;;8.05;3.80;;;;;;;;;;5015696;28;20061;-26
2023/05/10 01:28:17;;;;;;;4.65;4.22;;;;;;;;;;5015946;28;20414;-26
2023/05/10 01:30:52;;;;;;;8.88;4.10;;;;;;;;;;5012050;28;20416;-26
2023/05/10 01:33:34;;;;;;;5.38;3.20;;;;;;;;;;5015465;28;20484;-26
2023/05/10 01:36:06;;;;;;;7.22;3.88;;;;;;;;;;5015785;28;20034;-26
2023/05/10 01:38:33;;;;;;;9.18;4.82;;;;;;;;;;5015749;28;20022;-26
2023/05/10 01:41:18;;;;;;;8.20;3.45;;;;;;;;;;5015453;28;20083;-26
2023/05/10 01:43:50;;;;;;;4.03;3.70;;;;;;;;;;5015565;28;20076;-26
2023/05/10 01:46:25;;;;;;;6.47;3.33;;;;;;;;;;5015323;28;20061;-25
2023/05/10 01:48:52;;;;;;;6.28;4.30;;;;;;;;;;5015359;28;20053;-26
2023/05/10 01:51:22;;;;;;;5.95;3.75;;;;;;;;;;5015504;28;20381;-26
2023/05/10 01:53:48;;;;;;;7.05;3.78;;;;;;;;;;5015418;28;20057;-26
2023/05/10 01:56:15;;;;;;;4.18;3.80;;;;;;;;;;5015150;28;20547;-26
2023/05/10 01:58:45;;;;;;;4.57;3.30;;;;;;;;;;5015095;28;20030;-26
2023/05/10 02:01:11;;;;;;;6.63;3.40;;;;;;;;;;5015397;28;20018;-26
2023/05/10 02:03:39;;;;;;;5.97;3.90;;;;;;;;;;5014884;28;20389;-26
2023/05/10 02:06:06;;;;;;;5.30;3.42;;;;;;;;;;5015028;28;20095;-26
2023/05/10 02:08:33;;;;;;;8.48;3.72;;;;;;;;;;5015242;28;20458;-26
2023/05/10 02:11:00;;;;;;;5.13;3.50;;;;;;;;;;5014942;28;20108;-26
2023/05/10 02:13:28;;;;;;;5.68;3.65;;;;;;;;;;5014741;28;20022;-26
2023/05/10 02:15:55;;;;;;;7.93;4.35;;;;;;;;;;4981575;28;20052;-26
2023/05/10 02:18:22;;;;;;;6.55;4.85;;;;;;;;;;5015140;28;20014;-26
2023/05/10 02:20:48;;;;;;;5.18;3.72;;;;;;;;;;5014824;28;20029;-25
2023/05/10 02:23:16;;;;;;;5.03;3.33;;;;;;;;;;5014865;28;20026;-26
2023/05/10 02:25:44;;;;;;;5.05;3.60;;;;;;;;;;5015332;28;20139;-26
2023/05/10 02:28:11;;;;;;;4.57;4.18;;;;;;;;;;5014718;28;20109;-26
2023/05/10 02:30:37;;;;;;;6.50;3.78;;;;;;;;;;5014993;28;20037;-25
2023/05/10 02:33:05;;;;;;;6.20;3.58;;;;;;;;;;5016013;28;20342;-26
2023/05/10 02:35:33;;;;;;;5.75;3.75;;;;;;;;;;5018811;28;20032;-26
2023/05/10 02:38:00;;;;;;;5.97;3.67;;;;;;;;;;5018737;28;20022;-26
2023/05/10 02:40:26;;;;;;;3.83;3.50;;;;;;;;;;5018736;28;20453;-26
2023/05/10 02:42:55;;;;;;;7.47;3.97;;;;;;;;;;5001526;28;20033;-26
2023/05/10 02:45:22;;;;;;;4.95;3.65;;;;;;;;;;5018680;28;20037;-26
2023/05/10 02:47:48;;;;;;;4.97;4.03;;;;;;;;;;5018876;28;20105;-25
2023/05/10 02:50:15;;;;;;;4.85;3.65;;;;;;;;;;5018584;28;20073;-26
2023/05/10 02:52:43;;;;;;;4.10;3.58;;;;;;;;;;5018418;28;20030;-26
2023/05/10 02:55:10;;;;;;;4.65;3.75;;;;;;;;;;5018440;28;20029;-25
2023/05/10 02:57:40;;;;;;;4.30;3.42;;;;;;;;;;5018435;28;20021;-26
2023/05/10 03:00:07;;;;;;;6.40;4.00;;;;;;;;;;5018381;28;20108;-26
2023/05/10 03:02:33;;;;;;;4.03;3.53;;;;;;;;;;5018046;28;20050;-26
2023/05/10 03:04:59;;;;;;;6.45;4.40;;;;;;;;;;5018327;28;20029;-26
2023/05/10 03:07:25;;;;;;;4.18;3.53;;;;;;;;;;5018474;28;20449;-26
2023/05/10 03:09:51;;;;;;;4.65;3.20;;;;;;;;;;5018469;28;20026;-25
2023/05/10 03:12:27;;;;;;;4.22;3.55;;;;;;;;;;5018350;28;20404;-26
2023/05/10 03:14:57;;;;;;;3.45;3.13;;;;;;;;;;5018327;28;20088;-26
2023/05/10 03:17:29;;;;;;;3.42;3.13;;;;;;;;;;5018329;28;20045;-26
2023/05/10 03:19:56;;;;;;;5.60;3.53;;;;;;;;;;5018018;28;20136;-26
2023/05/10 03:22:29;;;;;;;4.90;3.30;;;;;;;;;;5018439;28;20345;-26
2023/05/10 03:24:57;;;;;;;5.22;3.63;;;;;;;;;;5017933;28;20408;-26
2023/05/10 03:27:25;;;;;;;5.57;3.70;;;;;;;;;;5017810;28;20037;-26
2023/05/10 03:29:52;;;;;;;6.65;3.47;;;;;;;;;;5017784;28;20022;-26
2023/05/10 03:32:18;;;;;;;4.65;3.85;;;;;;;;;;5017985;28;20030;-25
2023/05/10 03:34:44;;;;;;;3.97;3.22;;;;;;;;;;5017669;28;20033;-26
2023/05/10 03:37:10;;;;;;;4.90;3.38;;;;;;;;;;5017700;28;20071;-31
2023/05/10 03:39:36;;;;;;;4.13;3.58;;;;;;;;;;5017628;28;20018;-26
2023/05/10 03:42:02;;;;;;;3.75;3.45;;;;;;;;;;5017732;28;20045;-26
2023/05/10 03:44:29;;;;;;;4.55;3.83;;;;;;;;;;5017759;28;20062;-26
2023/05/10 03:46:56;;;;;;;5.43;3.45;;;;;;;;;;5017708;28;20446;-25
2023/05/10 03:49:23;;;;;;;5.10;4.60;;;;;;;;;;5017375;28;20037;-26
2023/05/10 03:51:49;;;;;;;7.25;3.58;;;;;;;;;;5017265;28;20026;-25
2023/05/10 03:54:15;;;;;;;6.57;4.70;;;;;;;;;;5017484;28;20053;-26
2023/05/10 03:56:41;;;;;;;4.32;3.70;;;;;;;;;;5017208;28;20036;-26
2023/05/10 03:59:08;;;;;;;4.65;3.88;;;;;;;;;;5017151;28;20445;-25
2023/05/10 04:01:35;;;;;;;4.45;3.45;;;;;;;;;;5017640;28;20345;-26
2023/05/10 04:04:01;;;;;;;6.20;4.30;;;;;;;;;;4999781;28;20123;-26
2023/05/10 04:06:27;;;;;;;4.68;3.25;;;;;;;;;;5017102;28;20029;-26
2023/05/10 04:09:03;;;;;;;4.40;4.00;;;;;;;;;;5016986;28;20100;-26
2023/05/10 04:11:31;;;;;;;5.35;3.60;;;;;;;;;;5016878;28;20037;-26
2023/05/10 04:13:58;;;;;;;4.78;3.70;;;;;;;;;;5016545;28;20034;-26
2023/05/10 04:16:24;;;;;;;4.55;4.13;;;;;;;;;;5016572;28;20092;-26
2023/05/10 04:18:50;;;;;;;5.70;3.55;;;;;;;;;;5016877;28;20036;-25
2023/05/10 04:21:16;;;;;;;4.05;3.75;;;;;;;;;;4999333;28;20462;-26
2023/05/10 04:23:43;;;;;;;5.53;3.80;;;;;;;;;;5016473;28;20128;-25
2023/05/10 04:26:09;;;;;;;3.70;3.35;;;;;;;;;;5016240;28;20349;-26
2023/05/10 04:28:35;;;;;;;5.68;4.03;;;;;;;;;;5016479;28;20026;-26
2023/05/10 04:31:02;;;;;;;5.20;3.72;;;;;;;;;;5016572;28;20358;-25
2023/05/10 04:33:28;;;;;;;6.28;4.07;;;;;;;;;;5016104;28;20022;-26
2023/05/10 04:35:54;;;;;;;5.68;4.15;;;;;;;;;;5016538;28;20377;-26
2023/05/10 04:38:20;;;;;;;4.03;3.72;;;;;;;;;;4998966;28;20045;-26
2023/05/10 04:40:46;;;;;;;6.25;4.03;;;;;;;;;;5016536;28;20034;-26
2023/05/10 04:43:13;;;;;;;4.65;3.28;;;;;;;;;;5016168;28;20104;-26
2023/05/10 04:45:39;;;;;;;4.90;3.60;;;;;;;;;;5016092;28;20025;-26
2023/05/10 04:48:05;;;;;;;4.38;3.80;;;;;;;;;;5016175;28;20408;-26
2023/05/10 04:50:31;;;;;;;7.95;4.82;;;;;;;;;;5016215;28;20034;-26
2023/05/10 04:52:58;;;;;;;6.03;4.13;;;;;;;;;;5015908;28;20545;-26
2023/05/10 04:55:24;;;;;;;6.28;5.68;;;;;;;;;;5015329;28;20352;-26
2023/05/10 04:57:50;;;;;;;4.90;4.45;;;;;;;;;;5016163;28;20056;-26
2023/05/10 05:00:16;;;;;;;4.50;4.10;;;;;;;;;;5016257;28;20090;-26
2023/05/10 05:02:46;;;;;;;4.68;4.28;;;;;;;;;;5015968;28;20062;-26
2023/05/10 05:05:13;;;;;;;8.13;5.15;;;;;;;;;;5015871;28;20356;-26
2023/05/10 05:07:39;;;;;;;4.75;4.38;;;;;;;;;;5016130;28;20036;-26
2023/05/10 05:10:07;;;;;;;5.00;4.38;;;;;;;;;;4998496;28;20033;-26
2023/05/10 05:12:33;;;;;;;6.80;4.75;;;;;;;;;;5015630;28;20113;-26
2023/05/10 05:14:59;;;;;;;5.70;4.50;;;;;;;;;;5015979;28;20037;-26
2023/05/10 05:17:28;;;;;;;11.10;4.30;;;;;;;;;;5015999;28;20037;-26
2023/05/10 05:19:54;;;;;;;9.07;3.63;;;;;;;;;;5015702;28;20025;-26
2023/05/10 05:22:27;;;;;;;4.15;3.30;;;;;;;;;;5015903;28;20083;-25
2023/05/10 05:24:53;;;;;;;5.20;4.68;;;;;;;;;;5016134;28;20101;-26
2023/05/10 05:27:20;;;;;;;4.05;3.75;;;;;;;;;;5016124;28;20034;-26
2023/05/10 05:29:47;;;;;;;8.02;4.75;;;;;;;;;;4998294;28;20041;-25
2023/05/10 05:32:13;;;;;;;5.05;4.00;;;;;;;;;;5015649;28;20037;-26
2023/05/10 05:34:39;;;;;;;6.88;4.65;;;;;;;;;;4998747;28;20376;-25
2023/05/10 05:37:05;;;;;;;5.30;4.78;;;;;;;;;;5015698;28;20022;-26
2023/05/10 05:39:31;;;;;;;8.15;5.28;;;;;;;;;;5015364;28;20097;-26
2023/05/10 05:41:58;;;;;;;7.15;4.18;;;;;;;;;;5015445;28;20032;-25
2023/05/10 05:44:24;;;;;;;6.63;4.53;;;;;;;;;;5015306;28;20045;-26
2023/05/10 05:46:50;;;;;;;4.93;4.55;;;;;;;;;;4997896;28;20022;-26
2023/05/10 05:49:16;;;;;;;4.95;4.25;;;;;;;;;;5015384;28;20022;-26
2023/05/10 05:51:42;;;;;;;7.50;4.50;;;;;;;;;;5015347;28;20026;-26
2023/05/10 05:54:09;;;;;;;5.50;4.90;;;;;;;;;;5015427;28;20041;-25
2023/05/10 05:56:35;;;;;;;4.82;3.70;;;;;;;;;;5015266;28;20026;-25
2023/05/10 05:59:01;;;;;;;7.63;4.65;;;;;;;;;;5015255;28;20068;-25
2023/05/10 06:01:27;;;;;;;5.03;4.53;;;;;;;;;;5015155;28;20064;-26
2023/05/10 06:03:53;;;;;;;5.53;4.78;;;;;;;;;;5014513;28;20041;-26
2023/05/10 06:06:19;;;;;;;8.70;5.20;;;;;;;;;;5015013;28;20349;-26
2023/05/10 06:08:45;;;;;;;8.65;4.32;;;;;;;;;;5013972;28;20061;-26
2023/05/10 06:11:11;;;;;;;5.60;4.18;;;;;;;;;;5014872;28;20033;-26
2023/05/10 06:13:37;;;;;;;6.60;4.95;;;;;;;;;;5014449;28;20044;-26
2023/05/10 06:16:04;;;;;;;4.78;4.35;;;;;;;;;;5014471;28;20018;-26
2023/05/10 06:18:30;;;;;;;6.63;4.60;;;;;;;;;;5014173;28;20026;-26
2023/05/10 06:20:57;;;;;;;9.82;4.85;;;;;;;;;;5014480;28;20338;-26
2023/05/10 06:23:25;;;;;;;9.05;5.30;;;;;;;;;;5014023;28;20026;-26
2023/05/10 06:25:51;;;;;;;5.80;4.47;;;;;;;;;;5014152;28;20025;-26
2023/05/10 06:28:17;;;;;;;6.93;4.85;;;;;;;;;;5014103;28;20093;-26
2023/05/10 06:30:44;;;;;;;4.90;4.45;;;;;;;;;;5014389;28;20437;-25
2023/05/10 06:33:10;;;;;;;4.72;4.35;;;;;;;;;;5015012;28;20285;-26
2023/05/10 06:35:36;;;;;;;9.00;4.70;;;;;;;;;;5014747;28;20105;-27
2023/05/10 06:38:02;;;;;;;5.47;4.60;;;;;;;;;;5014294;28;20033;-29
2023/05/10 06:40:28;;;;;;;5.82;5.32;;;;;;;;;;5014094;28;20018;-25
2023/05/10 06:42:55;;;;;;;8.70;4.90;;;;;;;;;;5014689;28;20378;-26
2023/05/10 06:45:21;;;;;;;6.38;4.60;;;;;;;;;;4997663;28;20029;-26
2023/05/10 06:47:47;;;;;;;8.60;5.20;;;;;;;;;;5014461;28;20021;-26
2023/05/10 06:50:13;;;;;;;9.27;5.13;;;;;;;;;;5014314;28;20037;-26
2023/05/10 06:52:39;;;;;;;6.60;4.80;;;;;;;;;;5014526;28;20014;-26
2023/05/10 06:55:06;;;;;;;7.28;5.43;;;;;;;;;;5014304;28;20026;-26
2023/05/10 06:57:32;;;;;;;8.27;4.85;;;;;;;;;;5014289;28;20369;-25
2023/05/10 06:59:59;;;;;;;6.95;4.93;;;;;;;;;;5014186;28;20038;-25
2023/05/10 07:02:25;;;;;;;5.32;4.90;;;;;;;;;;5014226;28;20438;-25
2023/05/10 07:04:52;;;;;;;6.60;4.75;;;;;;;;;;5014548;28;20026;-26
2023/05/10 07:07:18;;;;;;;9.15;5.20;;;;;;;;;;5014543;28;20026;-26
2023/05/10 07:09:44;;;;;;;5.80;5.30;;;;;;;;;;5014501;28;20431;-26
2023/05/10 07:12:11;;;;;;;4.95;4.55;;;;;;;;;;5014328;28;20454;-26
2023/05/10 07:14:37;;;;;;;11.98;6.15;;;;;;;;;;5014068;28;20361;-25
2023/05/10 07:17:03;;;;;;;8.38;6.30;;;;;;;;;;5014039;28;20033;-26
2023/05/10 07:19:29;;;;;;;5.82;5.10;;;;;;;;;;5016492;28;20022;-25
2023/05/10 07:21:55;;;;;;;5.47;4.65;;;;;;;;;;5018026;28;20349;-26
2023/05/10 07:24:23;;;;;;;10.85;4.70;;;;;;;;;;5000747;28;20036;-25
2023/05/10 07:26:49;;;;;;;6.47;4.68;;;;;;;;;;5017714;28;20022;-26
2023/05/10 07:29:15;;;;;;;5.43;4.28;;;;;;;;;;5017776;28;20034;-26
2023/05/10 07:31:44;;;;;;;8.15;6.43;;;;;;;;;;5017815;28;20040;-25
2023/05/10 07:34:10;;;;;;;7.72;4.20;;;;;;;;;;5017519;28;20065;-26
2023/05/10 07:36:36;;;;;;;6.32;4.53;;;;;;;;;;5017659;28;20022;-26
2023/05/10 07:39:02;;;;;;;6.97;4.55;;;;;;;;;;5017727;28;20109;-25
2023/05/10 07:41:28;;;;;;;6.15;4.35;;;;;;;;;;5017649;28;20139;-26
2023/05/10 07:43:55;;;;;;;12.40;5.68;;;;;;;;;;5017408;28;20029;-25
2023/05/10 07:46:21;;;;;;;4.43;3.97;;;;;;;;;;5017723;28;20092;-26
2023/05/10 07:48:47;;;;;;;7.25;4.63;;;;;;;;;;5017688;28;20377;-26
2023/05/10 07:51:13;;;;;;;6.93;4.25;;;;;;;;;;5017404;28;20361;-26
2023/05/10 07:53:39;;;;;;;5.57;4.85;;;;;;;;;;5017209;28;20113;-26
2023/05/10 07:56:29;;;;;;;7.20;4.63;;;;;;;;;;5017222;28;20022;-26
2023/05/10 07:58:55;;;;;;;5.25;4.72;;;;;;;;;;5017225;28;20387;-25
2023/05/10 08:01:22;;;;;;;9.85;4.55;;;;;;;;;;5017030;28;20088;-26
2023/05/10 08:03:48;;;;;;;7.60;4.70;;;;;;;;;;5016627;28;20061;-25
2023/05/10 08:06:15;;;;;;;5.32;4.75;;;;;;;;;;5016693;28;20026;-25
2023/05/10 08:08:42;;;;;;;6.20;4.97;;;;;;;;;;5016713;28;20030;-26
2023/05/10 08:11:08;;;;;;;7.32;4.32;;;;;;;;;;5016995;28;20362;-26
2023/05/10 08:13:34;;;;;;;5.15;4.32;;;;;;;;;;4999287;28;20369;-26
2023/05/10 08:16:00;;;;;;;6.63;4.97;;;;;;;;;;5016711;28;20072;-25
2023/05/10 08:18:26;;;;;;;8.48;4.82;;;;;;;;;;5017184;28;20440;-26
2023/05/10 08:20:52;;;;;;;11.45;4.45;;;;;;;;;;5016875;28;20033;-26
2023/05/10 08:23:18;;;;;;;10.13;5.68;;;;;;;;;;5016779;28;20040;-26
2023/05/10 08:25:45;;;;;;;10.55;5.93;;;;;;;;;;5016975;28;20099;-26
2023/05/10 08:28:11;;;;;;;7.13;5.03;;;;;;;;;;5016591;28;20057;-26
2023/05/10 08:30:37;;;;;;;5.15;4.47;;;;;;;;;;5015758;28;20109;-26
2023/05/10 08:33:03;;;;;;;6.40;5.25;;;;;;;;;;5016513;28;20126;-25
2023/05/10 08:35:29;;;;;;;7.82;4.80;;;;;;;;;;5016505;28;20018;-26
2023/05/10 08:37:55;;;;;;;7.55;5.25;;;;;;;;;;5016440;28;20045;-26
2023/05/10 08:40:21;;;;;;;12.05;5.43;;;;;;;;;;5016377;28;20128;-26
2023/05/10 08:42:54;;;;;;;8.02;4.97;;;;;;;;;;5016563;28;20022;-26
2023/05/10 08:45:20;;;;;;;10.38;5.43;;;;;;;;;;5016016;28;20026;-25
2023/05/10 08:47:47;;;;;;;6.28;5.32;;;;;;;;;;5016046;28;20361;-26
2023/05/10 08:50:13;;;;;;;7.32;5.55;;;;;;;;;;5015893;28;20064;-25
2023/05/10 08:52:41;;;;;;;9.95;4.78;;;;;;;;;;5016125;28;20022;-26
2023/05/10 08:55:07;;;;;;;8.23;4.80;;;;;;;;;;5015791;28;20037;-25
2023/05/10 08:57:33;;;;;;;10.55;4.60;;;;;;;;;;5015805;28;20058;-26
2023/05/10 09:00:01;;;;;;;5.50;5.00;;;;;;;;;;5015859;28;20357;-26
2023/05/10 09:02:27;;;;;;;11.80;6.03;;;;;;;;;;5015860;28;20052;-26
2023/05/10 09:04:53;;;;;;;5.55;4.85;;;;;;;;;;5016005;28;20360;-26
2023/05/10 09:07:20;;;;;;;8.70;4.47;;;;;;;;;;4998326;28;20026;-26
2023/05/10 09:09:47;;;;;;;4.95;4.50;;;;;;;;;;5015668;28;20099;-26
2023/05/10 09:12:15;;;;;;;4.88;4.18;;;;;;;;;;5015401;28;20033;-26
2023/05/10 09:14:42;;;;;;;5.93;4.28;;;;;;;;;;5015439;28;20465;-26
2023/05/10 09:17:08;;;;;;;7.63;4.97;;;;;;;;;;5015794;28;20021;-26
2023/05/10 09:19:34;;;;;;;5.40;4.22;;;;;;;;;;5015556;28;20026;-26
2023/05/10 09:22:02;;;;;;;6.47;5.00;;;;;;;;;;5015478;28;20033;-26
2023/05/10 09:24:30;;;;;;;6.45;4.43;;;;;;;;;;5015692;28;20018;-26
2023/05/10 09:26:58;;;;;;;6.07;4.63;;;;;;;;;;5015844;28;20021;-25
2023/05/10 09:29:24;;;;;;;5.38;4.78;;;;;;;;;;5015486;28;20036;-26
2023/05/10 09:31:52;;;;;;;5.70;4.07;;;;;;;;;;5015456;28;20053;-26
2023/05/10 09:34:19;;;;;;;11.23;5.03;;;;;;;;;;5015700;28;20026;-26
2023/05/10 09:36:52;;;;;;;8.27;5.07;;;;;;;;;;5015422;28;20030;-32
2023/05/10 09:39:18;;;;;;;6.00;4.65;;;;;;;;;;5015651;28;20026;-25
2023/05/10 09:41:44;;;;;;;5.68;4.53;;;;;;;;;;5015480;28;20034;-26
2023/05/10 09:44:10;;;;;;;9.05;5.57;;;;;;;;;;5015524;28;20061;-26
2023/05/10 09:46:37;;;;;;;5.38;4.72;;;;;;;;;;5015146;28;20022;-26
2023/05/10 09:49:03;;;;;;;7.78;4.93;;;;;;;;;;5015086;28;20034;-26
2023/05/10 09:51:29;;;;;;;6.68;4.32;;;;;;;;;;5015458;28;20345;-26
2023/05/10 09:54:14;;;;;;;7.18;5.10;;;;;;;;;;5015217;28;20021;-26
2023/05/10 09:56:41;;;;;;;6.38;5.05;;;;;;;;;;5015050;28;20026;-26
2023/05/10 09:59:08;;;;;;;5.22;4.70;;;;;;;;;;5015305;28;20033;-26
2023/05/10 10:01:35;;;;;;;8.38;4.78;;;;;;;;;;5015303;28;20393;-26
2023/05/10 10:04:10;;;;;;;6.72;4.90;;;;;;;;;;5014645;28;20050;-26
2023/05/10 10:06:37;;;;;;;8.43;4.40;;;;;;;;;;5015211;28;20033;-26
2023/05/10 10:09:03;;;;;;;9.50;4.30;;;;;;;;;;5015143;28;20041;-26
2023/05/10 10:11:29;;;;;;;12.52;5.38;;;;;;;;;;4997494;28;20329;-26
2023/05/10 10:13:56;;;;;;;9.50;4.88;;;;;;;;;;5014677;28;20030;-26
2023/05/10 10:16:22;;;;;;;13.93;4.35;;;;;;;;;;5015095;28;20022;-26
2023/05/10 10:18:48;;;;;;;9.20;5.30;;;;;;;;;;5014811;28;20030;-26
2023/05/10 10:21:16;;;;;;;6.13;4.75;;;;;;;;;;5014742;28;20022;-26
2023/05/10 10:23:43;;;;;;;6.13;4.25;;;;;;;;;;5014679;28;20096;-26
2023/05/10 10:26:11;;;;;;;9.23;5.78;;;;;;;;;;5014750;28;20092;-25
2023/05/10 10:28:47;;;;;;;6.60;4.78;;;;;;;;;;5015066;28;20113;-26
2023/05/10 10:31:36;;;;;;;11.18;4.97;;;;;;;;;;5014834;28;20025;-25
2023/05/10 10:34:06;;;;;;;10.82;4.68;;;;;;;;;;4978423;28;20436;-25
2023/05/10 10:36:34;;;;;;;5.25;4.45;;;;;;;;;;5014631;28;20032;-26
2023/05/10 10:39:02;;;;;;;4.43;4.03;;;;;;;;;;5014897;28;20030;-26
2023/05/10 10:41:35;;;;;;;9.30;4.72;;;;;;;;;;5014650;28;20343;-25
2023/05/10 10:44:20;;;;;;;9.07;4.60;;;;;;;;;;5014508;28;20075;-26
2023/05/10 10:47:18;;;;;;;7.78;4.85;;;;;;;;;;5014803;28;20400;-26
2023/05/10 10:50:04;;;;;;;8.95;4.68;;;;;;;;;;4987431;28;20045;-25
2023/05/10 10:52:37;;;;;;;6.68;4.22;;;;;;;;;;4997114;28;20026;-25
2023/05/10 10:55:05;;;;;;;10.48;4.38;;;;;;;;;;5000163;28;20069;-26
2023/05/10 10:57:51;;;;;;;8.98;4.20;;;;;;;;;;5001472;28;20022;-26
2023/05/10 11:00:21;;;;;;;7.15;5.07;;;;;;;;;;5018314;28;20361;-26
2023/05/10 11:02:48;;;;;;;7.53;4.88;;;;;;;;;;5001160;28;20057;-26
2023/05/10 11:05:36;;;;;;;9.48;4.50;;;;;;;;;;5018218;28;20026;-26
2023/05/10 11:08:14;;;;;;;6.72;4.00;;;;;;;;;;5018382;28;20088;-26
2023/05/10 11:10:41;;;;;;;5.35;4.72;;;;;;;;;;5018548;28;20105;-26
2023/05/10 11:13:08;;;;;;;6.20;4.75;;;;;;;;;;5017662;28;20040;-26
2023/05/10 11:15:49;;;;;;;4.95;4.25;;;;;;;;;;5018330;28;20026;-26
2023/05/10 11:18:25;;;;;;;7.35;4.80;;;;;;;;;;5018249;28;20032;-25
2023/05/10 11:20:52;;;;;;;6.38;5.10;;;;;;;;;;5018368;28;20036;-26
2023/05/10 11:23:19;;;;;;;5.10;4.60;;;;;;;;;;5000439;28;20034;-26
2023/05/10 11:25:49;;;;;;;9.05;4.75;;;;;;;;;;5017813;28;20022;-25
2023/05/10 11:28:15;;;;;;;13.10;4.95;;;;;;;;;;5018291;28;20105;-26
2023/05/10 11:30:42;;;;;;;5.28;4.72;;;;;;;;;;5017980;28;20033;-26
2023/05/10 11:33:08;;;;;;;13.02;5.65;;;;;;;;;;5018087;28;20053;-26
2023/05/10 11:35:38;;;;;;;9.10;5.00;;;;;;;;;;5017671;28;20036;-25
2023/05/10 11:38:08;;;;;;;15.07;4.95;;;;;;;;;;5017791;28;20032;-25
2023/05/10 11:40:35;;;;;;;10.20;4.70;;;;;;;;;;5017782;28;20110;-26
2023/05/10 11:43:02;;;;;;;10.90;4.40;;;;;;;;;;5017390;28;20469;-26
2023/05/10 11:45:31;;;;;;;8.10;4.45;;;;;;;;;;5017649;28;20116;-26
2023/05/10 11:47:58;;;;;;;5.30;4.20;;;;;;;;;;5017322;28;20093;-26
2023/05/10 11:50:24;;;;;;;7.53;5.72;;;;;;;;;;5017348;28;20441;-26
2023/05/10 11:52:58;;;;;;;9.38;5.05;;;;;;;;;;5017276;28;20022;-26
2023/05/10 11:55:24;;;;;;;7.85;4.70;;;;;;;;;;5017237;28;20029;-26
2023/05/10 11:57:54;;;;;;;7.15;4.43;;;;;;;;;;5017334;28;20108;-25
2023/05/10 12:00:21;;;;;;;7.72;4.97;;;;;;;;;;5017265;28;20357;-26
2023/05/10 12:02:47;;;;;;;5.03;4.35;;;;;;;;;;5017297;28;20037;-26
2023/05/10 12:05:14;;;;;;;14.23;5.35;;;;;;;;;;5015798;28;20076;-26
2023/05/10 12:07:40;;;;;;;6.70;4.70;;;;;;;;;;5017064;28;20053;-26
2023/05/10 12:10:10;;;;;;;13.63;5.38;;;;;;;;;;5016945;28;20041;-26
2023/05/10 12:12:43;;;;;;;8.32;5.05;;;;;;;;;;5016877;28;20127;-26
2023/05/10 12:15:20;;;;;;;12.15;4.97;;;;;;;;;;5017945;28;20041;-26
2023/05/10 12:17:46;;;;;;;5.57;4.53;;;;;;;;;;5017205;28;20394;-26
2023/05/10 12:20:20;;;;;;;7.38;4.40;;;;;;;;;;5016861;28;20022;-25
2023/05/10 12:22:47;;;;;;;8.65;5.85;;;;;;;;;;5016589;28;20017;-26
2023/05/10 12:25:13;;;;;;;11.57;6.35;;;;;;;;;;5016832;28;20111;-25
2023/05/10 12:27:39;;;;;;;11.70;6.38;;;;;;;;;;5017274;28;20021;-26
2023/05/10 12:30:06;;;;;;;7.72;4.40;;;;;;;;;;5016663;28;20026;-25
2023/05/10 12:32:44;;;;;;;8.75;4.93;;;;;;;;;;5016471;28;20117;-26
2023/05/10 12:35:10;;;;;;;7.88;5.15;;;;;;;;;;5016673;28;20022;-26
2023/05/10 12:37:38;;;;;;;7.35;4.50;;;;;;;;;;5016661;28;20076;-25
2023/05/10 12:40:08;;;;;;;5.13;4.55;;;;;;;;;;5016424;28;20045;-25
2023/05/10 12:42:38;;;;;;;11.55;5.72;;;;;;;;;;5016369;28;20029;-26
2023/05/10 12:45:05;;;;;;;5.55;4.60;;;;;;;;;;5016295;28;20472;-26
2023/05/10 12:47:31;;;;;;;11.07;5.13;;;;;;;;;;5016383;28;20334;-26
2023/05/10 12:49:57;;;;;;;8.43;4.85;;;;;;;;;;4999059;28;20022;-26
2023/05/10 12:52:24;;;;;;;5.32;4.80;;;;;;;;;;5016342;28;20026;-26
2023/05/10 12:54:50;;;;;;;9.35;4.85;;;;;;;;;;5016096;28;20034;-26
2023/05/10 12:57:16;;;;;;;9.63;4.85;;;;;;;;;;5016140;28;20104;-26
2023/05/10 12:59:42;;;;;;;6.13;5.00;;;;;;;;;;5016123;28;20081;-26
2023/05/10 13:02:08;;;;;;;5.68;4.78;;;;;;;;;;5015969;28;20021;-26
2023/05/10 13:04:35;;;;;;;10.23;5.93;;;;;;;;;;5016289;28;20026;-26
2023/05/10 13:07:01;;;;;;;9.40;5.40;;;;;;;;;;5015846;28;20022;-26
2023/05/10 13:09:29;;;;;;;13.00;5.38;;;;;;;;;;5015833;28;20033;-26
2023/05/10 13:11:55;;;;;;;11.40;4.93;;;;;;;;;;4998306;28;20105;-26
2023/05/10 13:14:21;;;;;;;10.88;5.15;;;;;;;;;;5015656;28;20065;-26
2023/05/10 13:16:48;;;;;;;7.47;5.85;;;;;;;;;;5015673;28;20050;-26
2023/05/10 13:19:14;;;;;;;11.07;4.88;;;;;;;;;;5015793;28;20025;-25
2023/05/10 13:21:41;;;;;;;5.03;4.55;;;;;;;;;;5015695;28;20030;-26
2023/05/10 13:24:07;;;;;;;6.13;5.03;;;;;;;;;;5015997;28;20409;-27
2023/05/10 13:26:34;;;;;;;9.60;5.18;;;;;;;;;;5016136;28;20058;-26
2023/05/10 13:29:00;;;;;;;7.78;5.10;;;;;;;;;;5015541;28;20037;-26
2023/05/10 13:31:26;;;;;;;15.48;5.35;;;;;;;;;;5015662;28;20109;-26
2023/05/10 13:33:52;;;;;;;7.25;5.10;;;;;;;;;;5015613;28;20029;-26
2023/05/10 13:36:18;;;;;;;7.93;4.55;;;;;;;;;;5016015;28;20357;-26
2023/05/10 13:38:44;;;;;;;12.15;5.32;;;;;;;;;;5015573;28;20469;-26
2023/05/10 13:41:10;;;;;;;9.00;4.80;;;;;;;;;;5015644;28;20014;-26
2023/05/10 13:43:37;;;;;;;11.60;4.85;;;;;;;;;;5015265;28;20026;-26
2023/05/10 13:46:03;;;;;;;7.88;5.43;;;;;;;;;;5015277;28;20100;-26
2023/05/10 13:48:29;;;;;;;7.53;5.40;;;;;;;;;;5015691;28;20092;-26
2023/05/10 13:50:55;;;;;;;6.78;4.75;;;;;;;;;;5015385;28;20045;-26
2023/05/10 13:53:21;;;;;;;8.45;4.78;;;;;;;;;;5015154;28;20085;-26
2023/05/10 13:55:49;;;;;;;9.15;5.72;;;;;;;;;;5015214;28;20045;-26
2023/05/10 13:58:15;;;;;;;9.10;5.10;;;;;;;;;;5015334;28;20049;-26
2023/05/10 14:00:41;;;;;;;6.72;4.88;;;;;;;;;;5015372;28;20021;-26
2023/05/10 14:03:10;;;;;;;8.38;5.63;;;;;;;;;;5014825;28;20046;-26
2023/05/10 14:05:36;;;;;;;10.75;5.63;;;;;;;;;;5014946;28;20021;-26
2023/05/10 14:08:03;;;;;;;10.05;5.18;;;;;;;;;;5015116;28;20342;-26
2023/05/10 14:10:30;;;;;;;9.27;5.43;;;;;;;;;;5014867;28;20026;-26
2023/05/10 14:12:56;;;;;;;9.40;5.70;;;;;;;;;;5015844;28;20380;-26
2023/05/10 14:15:22;;;;;;;10.07;5.57;;;;;;;;;;5014679;28;20034;-26
2023/05/10 14:17:49;;;;;;;10.15;6.85;;;;;;;;;;5014674;28;20029;-26
2023/05/10 14:20:15;;;;;;;9.30;5.07;;;;;;;;;;4998100;28;20029;-26
2023/05/10 14:22:41;;;;;;;6.75;4.90;;;;;;;;;;4997571;28;20032;-26
2023/05/10 14:25:07;;;;;;;17.67;5.13;;;;;;;;;;5014855;28;20022;-26
2023/05/10 14:27:33;;;;;;;9.38;4.85;;;;;;;;;;4997263;28;20030;-26
2023/05/10 14:29:59;;;;;;;11.60;5.45;;;;;;;;;;5014376;28;20361;-26
2023/05/10 14:32:27;;;;;;;11.23;5.85;;;;;;;;;;5014539;28;20022;-26
2023/05/10 14:34:53;;;;;;;15.23;5.78;;;;;;;;;;5014360;28;20054;-26
2023/05/10 14:37:19;;;;;;;10.07;5.57;;;;;;;;;;4997129;28;20086;-26
2023/05/10 14:39:45;;;;;;;9.70;5.68;;;;;;;;;;5014416;28;20141;-26
2023/05/10 14:42:12;;;;;;;10.30;5.35;;;;;;;;;;5014224;28;20022;-26
2023/05/10 14:44:38;;;;;;;8.52;5.60;;;;;;;;;;5014384;28;20034;-26